Terminal Aerodrome Forecast
Issued by NWS

Home | Current Version | Previous Version | Text Only | Print | Product List | Glossary On
Versions: 1 2 3 4 5 6 7 8 9 10 11 12 13 14 15 16 17 18 19
000
FTUS43 KILX 252000 AAB
TAFBMI
TAF AMD
KBMI 252047Z 2521/2618 20013G22KT P6SM VCSH SCT015 BKN070
      TEMPO 2521/2523 BKN015
     FM252300 19012KT P6SM SCT060 BKN110
     FM260200 18010KT P6SM SCT050 BKN100
      TEMPO 2609/2613 5SM BR=

USA.gov is the U.S. government's official web portal to all federal, state and local government web resources and services.